Time;durP1;ratioP1;P1;durP2;ratioP2;P2;SDS_P1;SDS_P2;PMS_P1;PMS_P2;Temp;Humidity;BMP_temperature;BMP_pressure;BME280_temperature;BME280_humidity;BME280_pressure;Samples;Min_cycle;Max_cycle;Signal;HPM_P1;HPM_P2
2023/06/30 00:01:31;;;;;;;11.67;9.10;;;;;;;19.44;100.00;99677.59;4991931;28;20228;-64
2023/06/30 00:03:57;;;;;;;9.63;7.73;;;;;;;19.50;100.00;99677.81;4995155;28;20184;-65
2023/06/30 00:06:23;;;;;;;8.83;7.50;;;;;;;19.46;100.00;99683.47;5006880;28;20191;-65
2023/06/30 00:08:49;;;;;;;9.57;7.50;;;;;;;19.37;100.00;99669.53;5011533;28;20209;-65
2023/06/30 00:11:15;;;;;;;9.20;7.03;;;;;;;19.51;100.00;99663.78;4992410;28;20296;-63
2023/06/30 00:13:40;;;;;;;9.23;6.70;;;;;;;19.61;100.00;99662.88;5009604;28;20182;-64
2023/06/30 00:16:05;;;;;;;8.90;6.43;;;;;;;19.67;100.00;99659.66;5010715;28;20182;-64
2023/06/30 00:18:31;;;;;;;8.00;6.17;;;;;;;19.47;100.00;99646.00;5009571;28;20179;-64
2023/06/30 00:20:57;;;;;;;12.43;6.67;;;;;;;19.62;100.00;99647.09;5008099;28;20230;-65
2023/06/30 00:23:23;;;;;;;6.60;5.90;;;;;;;19.65;100.00;99645.94;5018034;28;20625;-64
2023/06/30 00:25:48;;;;;;;7.23;6.50;;;;;;;19.70;100.00;99643.69;5010518;28;20273;-65
2023/06/30 00:28:13;;;;;;;7.53;6.07;;;;;;;19.76;100.00;99640.47;5008028;28;20348;-65
2023/06/30 00:30:38;;;;;;;6.77;5.90;;;;;;;19.81;100.00;99629.56;5006223;28;20286;-65
2023/06/30 00:33:04;;;;;;;8.97;6.03;;;;;;;19.79;100.00;99629.72;5020026;28;20213;-64
2023/06/30 00:35:29;;;;;;;7.77;5.00;;;;;;;19.77;100.00;99628.22;5011059;28;20193;-64
2023/06/30 00:37:55;;;;;;;8.37;5.53;;;;;;;19.85;100.00;99620.47;5002925;28;20214;-64
2023/06/30 00:40:20;;;;;;;7.73;6.30;;;;;;;20.00;100.00;99613.69;5002311;28;20626;-65
2023/06/30 00:42:45;;;;;;;6.50;5.80;;;;;;;20.05;100.00;99615.84;5022271;28;20197;-64
2023/06/30 00:45:11;;;;;;;6.10;5.50;;;;;;;20.07;100.00;99611.28;4999090;28;20179;-64
2023/06/30 00:47:36;;;;;;;9.10;5.63;;;;;;;20.14;100.00;99617.50;5001610;28;20178;-64
2023/06/30 00:50:03;;;;;;;6.70;5.50;;;;;;;20.24;100.00;99619.16;5011565;28;20190;-64
2023/06/30 00:52:29;;;;;;;9.60;5.40;;;;;;;20.20;100.00;99629.09;4980246;28;20214;-64
2023/06/30 00:54:54;;;;;;;7.07;6.33;;;;;;;20.22;100.00;99632.38;5010493;28;20190;-64
2023/06/30 00:57:19;;;;;;;12.17;6.40;;;;;;;20.26;100.00;99632.88;5009259;28;20571;-64
2023/06/30 00:59:45;;;;;;;9.30;6.37;;;;;;;20.24;100.00;99629.59;5010367;28;20186;-64
2023/06/30 01:02:22;;;;;;;11.53;6.53;;;;;;;20.16;100.00;99622.56;5013446;28;20313;-65
2023/06/30 01:04:55;;;;;;;10.03;6.80;;;;;;;20.24;100.00;99621.78;5007538;28;20274;-64
2023/06/30 01:07:31;;;;;;;7.57;6.77;;;;;;;20.26;100.00;99612.81;4986636;28;20195;-64
2023/06/30 01:10:00;;;;;;;8.40;6.90;;;;;;;20.20;100.00;99608.22;4995493;28;20531;-64
2023/06/30 01:12:26;;;;;;;10.60;8.77;;;;;;;19.99;100.00;99608.63;5006442;28;20231;-64
2023/06/30 01:14:53;;;;;;;11.23;9.93;;;;;;;19.94;100.00;99598.66;4992900;28;20558;-62
2023/06/30 01:17:20;;;;;;;11.77;9.50;;;;;;;19.86;100.00;99600.41;4993120;28;20190;-64
2023/06/30 01:19:48;;;;;;;21.60;10.97;;;;;;;19.97;100.00;99592.28;4993203;28;20199;-64
2023/06/30 01:22:39;;;;;;;11.83;10.57;;;;;;;19.82;100.00;99594.66;4997810;28;20314;-64
2023/06/30 01:25:09;;;;;;;13.07;10.93;;;;;;;19.96;100.00;99594.09;4982387;28;20262;-64
2023/06/30 01:27:36;;;;;;;14.93;11.60;;;;;;;19.93;100.00;99591.81;4992736;28;20223;-64
2023/06/30 01:30:05;;;;;;;14.37;10.97;;;;;;;19.93;100.00;99590.97;4992644;28;20176;-65
2023/06/30 01:32:31;;;;;;;14.07;10.93;;;;;;;19.87;100.00;99589.84;4997818;28;20724;-64
2023/06/30 01:34:56;;;;;;;12.90;11.20;;;;;;;20.05;100.00;99583.69;5011690;28;20178;-63
2023/06/30 01:37:22;;;;;;;12.80;11.33;;;;;;;20.13;100.00;99586.31;5009041;28;20529;-64
2023/06/30 01:39:47;;;;;;;12.23;10.83;;;;;;;20.13;100.00;99581.09;5011982;28;20179;-64
2023/06/30 01:42:13;;;;;;;13.63;12.20;;;;;;;20.20;100.00;99574.28;5016560;28;20648;-65
2023/06/30 01:44:40;;;;;;;15.50;13.33;;;;;;;20.20;100.00;99571.66;5011530;28;20174;-64
2023/06/30 01:47:09;;;;;;;17.00;13.27;;;;;;;20.25;100.00;99574.59;5009684;28;20595;-64
2023/06/30 01:49:34;;;;;;;14.27;12.77;;;;;;;20.18;100.00;99567.56;5009676;28;20635;-64
2023/06/30 01:52:01;;;;;;;14.77;13.20;;;;;;;20.23;100.00;99566.13;5016427;28;20229;-65
2023/06/30 01:54:26;;;;;;;16.37;14.03;;;;;;;20.27;100.00;99561.41;5011557;28;20195;-63
2023/06/30 01:56:51;;;;;;;17.87;13.67;;;;;;;20.31;100.00;99570.56;5010997;28;20187;-63
2023/06/30 01:59:17;;;;;;;15.43;13.83;;;;;;;20.29;100.00;99575.09;5000844;28;20183;-64
2023/06/30 02:01:42;;;;;;;16.67;14.07;;;;;;;20.34;100.00;99572.03;4994862;28;20245;-64
2023/06/30 02:04:09;;;;;;;18.87;14.30;;;;;;;20.33;100.00;99568.59;4994476;28;20556;-64
2023/06/30 02:06:34;;;;;;;15.33;13.73;;;;;;;20.36;100.00;99573.50;4991881;28;20175;-64
2023/06/30 02:08:59;;;;;;;16.30;13.87;;;;;;;20.35;100.00;99568.44;4992263;28;20194;-64
2023/06/30 02:11:24;;;;;;;16.90;15.13;;;;;;;20.29;100.00;99570.72;4992195;28;20230;-64
2023/06/30 02:13:50;;;;;;;17.67;15.73;;;;;;;20.25;100.00;99576.41;5006334;28;20222;-64
2023/06/30 02:16:15;;;;;;;18.90;16.33;;;;;;;20.13;100.00;99576.72;5010066;28;20182;-64
2023/06/30 02:18:40;;;;;;;20.73;15.90;;;;;;;20.15;100.00;99573.94;5011437;28;20229;-64
2023/06/30 02:21:05;;;;;;;19.23;17.00;;;;;;;20.06;100.00;99575.69;5009255;28;20619;-64
2023/06/30 02:23:32;;;;;;;18.07;16.20;;;;;;;19.92;100.00;99582.34;5018493;28;20202;-64
2023/06/30 02:25:57;;;;;;;18.30;16.33;;;;;;;19.99;100.00;99579.91;4997739;28;20182;-64
2023/06/30 02:28:22;;;;;;;18.63;16.67;;;;;;;19.87;100.00;99576.78;5010957;28;20704;-64
2023/06/30 02:30:48;;;;;;;19.43;17.40;;;;;;;19.97;100.00;99574.03;5006505;28;21533;-64
2023/06/30 02:33:13;;;;;;;22.47;18.57;;;;;;;20.00;100.00;99574.53;5020420;28;20206;-64
2023/06/30 02:35:38;;;;;;;20.17;18.07;;;;;;;19.90;100.00;99576.47;5010173;28;20184;-64
2023/06/30 02:38:04;;;;;;;20.83;18.57;;;;;;;19.81;100.00;99570.34;5008421;28;20175;-64
2023/06/30 02:40:29;;;;;;;20.27;18.23;;;;;;;19.78;100.00;99573.28;5002772;28;20226;-64
2023/06/30 02:42:55;;;;;;;21.10;18.37;;;;;;;19.86;100.00;99574.31;5021800;28;20732;-65
2023/06/30 02:45:20;;;;;;;24.67;19.37;;;;;;;19.94;100.00;99579.56;5008436;28;20187;-65
2023/06/30 02:47:46;;;;;;;20.70;17.60;;;;;;;19.88;100.00;99583.63;5008924;28;20171;-65
2023/06/30 02:50:11;;;;;;;23.70;18.53;;;;;;;19.88;100.00;99593.25;4997736;28;20651;-64
2023/06/30 02:52:36;;;;;;;22.40;19.10;;;;;;;19.94;100.00;99601.25;4997663;28;20188;-64
2023/06/30 02:55:02;;;;;;;19.13;17.13;;;;;;;19.96;100.00;99606.34;4987590;28;20183;-64
2023/06/30 02:57:27;;;;;;;18.43;16.17;;;;;;;19.99;100.00;99614.69;4991705;28;20258;-64
2023/06/30 02:59:52;;;;;;;18.67;15.97;;;;;;;19.88;100.00;99616.75;4991999;28;20204;-64
2023/06/30 03:02:18;;;;;;;23.50;16.90;;;;;;;19.80;100.00;99607.88;4990608;28;20215;-64
2023/06/30 03:04:43;;;;;;;19.17;17.10;;;;;;;19.38;100.00;99598.16;5005833;28;20187;-64
2023/06/30 03:07:09;;;;;;;22.30;19.77;;;;;;;18.98;100.00;99591.69;5003373;28;20178;-64
2023/06/30 03:09:34;;;;;;;28.70;19.77;;;;;;;18.79;100.00;99590.03;5012735;28;20186;-63
2023/06/30 03:11:59;;;;;;;21.60;19.20;;;;;;;18.38;100.00;99591.28;4998228;28;20689;-63
2023/06/30 03:14:24;;;;;;;26.90;20.33;;;;;;;18.14;100.00;99593.63;5003840;28;20194;-63
2023/06/30 03:16:50;;;;;;;26.67;21.90;;;;;;;18.02;100.00;99598.19;5017554;28;20229;-63
2023/06/30 03:19:15;;;;;;;22.70;20.27;;;;;;;17.93;100.00;99599.03;5015258;28;20650;-63
2023/06/30 03:21:41;;;;;;;24.77;20.10;;;;;;;17.75;100.00;99602.38;5016445;28;20236;-63
2023/06/30 03:24:06;;;;;;;24.67;21.40;;;;;;;17.67;100.00;99615.28;5011242;28;20753;-63
2023/06/30 03:26:31;;;;;;;25.90;21.90;;;;;;;17.72;100.00;99613.91;5013215;28;20231;-63
2023/06/30 03:28:57;;;;;;;29.20;22.77;;;;;;;17.78;100.00;99620.31;5012354;28;20179;-63
2023/06/30 03:31:23;;;;;;;26.23;23.27;;;;;;;17.66;100.00;99621.44;4993043;28;20230;-63
2023/06/30 03:33:48;;;;;;;31.30;23.27;;;;;;;17.80;100.00;99623.59;5016470;28;20576;-62
2023/06/30 03:36:14;;;;;;;33.90;24.13;;;;;;;17.73;100.00;99636.31;5012438;28;20179;-63
2023/06/30 03:38:39;;;;;;;34.70;26.27;;;;;;;17.80;100.00;99630.56;5009889;28;20178;-63
2023/06/30 03:41:04;;;;;;;31.87;25.87;;;;;;;17.78;100.00;99627.28;5010904;28;20704;-63
2023/06/30 03:43:31;;;;;;;37.57;27.63;;;;;;;17.78;100.00;99635.09;5019477;28;20234;-63
2023/06/30 03:45:56;;;;;;;30.87;26.00;;;;;;;17.86;100.00;99632.59;5012833;28;20698;-63
2023/06/30 03:48:23;;;;;;;32.53;26.50;;;;;;;17.83;100.00;99633.69;5011681;28;20266;-63
2023/06/30 03:50:52;;;;;;;29.83;24.97;;;;;;;17.82;100.00;99628.63;5008483;28;20264;-63
2023/06/30 03:53:17;;;;;;;32.70;26.57;;;;;;;17.83;100.00;99644.09;5020027;28;20206;-63
2023/06/30 03:55:42;;;;;;;31.87;24.33;;;;;;;17.77;100.00;99642.06;5011794;28;20209;-63
2023/06/30 03:58:08;;;;;;;28.70;25.63;;;;;;;17.84;100.00;99634.53;5010596;28;20614;-63
2023/06/30 04:00:33;;;;;;;33.20;27.13;;;;;;;17.88;100.00;99644.50;5006439;28;20237;-63
2023/06/30 04:02:59;;;;;;;32.40;27.37;;;;;;;17.82;100.00;99641.66;5022692;28;20203;-63
2023/06/30 04:05:24;;;;;;;37.80;31.70;;;;;;;17.83;100.00;99631.09;5005144;28;20512;-63
2023/06/30 04:07:49;;;;;;;39.77;31.13;;;;;;;17.64;100.00;99626.78;4992770;28;20547;-63
2023/06/30 04:10:15;;;;;;;39.27;31.40;;;;;;;17.69;100.00;99631.56;4984424;28;20241;-64
2023/06/30 04:12:41;;;;;;;41.40;32.23;;;;;;;17.75;100.00;99646.59;5007259;28;20623;-64
2023/06/30 04:15:07;;;;;;;42.10;33.47;;;;;;;17.79;100.00;99647.16;4992594;28;20638;-64
2023/06/30 04:17:33;;;;;;;40.60;33.67;;;;;;;17.93;100.00;99646.66;4994335;28;20708;-64
2023/06/30 04:19:58;;;;;;;40.10;33.67;;;;;;;18.08;100.00;99633.25;4994463;28;20207;-65
2023/06/30 04:22:23;;;;;;;45.17;36.47;;;;;;;18.06;100.00;99641.19;4999240;28;20223;-64
2023/06/30 04:24:49;;;;;;;46.23;37.73;;;;;;;17.93;100.00;99638.06;5012826;28;20253;-64
2023/06/30 04:27:14;;;;;;;43.13;37.17;;;;;;;17.97;100.00;99642.03;5010785;28;20693;-64
2023/06/30 04:29:39;;;;;;;46.30;35.63;;;;;;;18.09;100.00;99643.50;5012852;28;20175;-64
2023/06/30 04:32:05;;;;;;;45.97;36.27;;;;;;;18.21;100.00;99647.56;5017538;28;20241;-65
2023/06/30 04:34:30;;;;;;;49.47;38.53;;;;;;;18.20;100.00;99645.09;5012464;28;20179;-64
2023/06/30 04:36:55;;;;;;;44.57;37.00;;;;;;;18.31;100.00;99644.91;5010372;28;20183;-64
2023/06/30 04:39:21;;;;;;;45.83;36.20;;;;;;;18.33;100.00;99642.97;5012590;28;20349;-65
2023/06/30 04:41:46;;;;;;;46.17;37.73;;;;;;;18.40;100.00;99645.81;5003654;28;20296;-65
2023/06/30 04:44:11;;;;;;;44.43;37.30;;;;;;;18.28;100.00;99642.56;5014565;28;20179;-64
2023/06/30 04:46:37;;;;;;;40.47;34.27;;;;;;;18.42;100.00;99637.84;5010992;28;20210;-64
2023/06/30 04:49:04;;;;;;;44.77;35.60;;;;;;;18.57;100.00;99631.19;5013087;28;20197;-64
2023/06/30 04:51:29;;;;;;;43.63;36.60;;;;;;;18.67;100.00;99636.34;5013071;28;20272;-65
2023/06/30 04:53:54;;;;;;;42.30;35.50;;;;;;;18.82;100.00;99640.06;5016977;28;20191;-62
2023/06/30 04:56:20;;;;;;;39.83;35.13;;;;;;;18.77;100.00;99636.28;5007189;28;20194;-77
2023/06/30 04:58:45;;;;;;;42.23;34.83;;;;;;;18.86;100.00;99636.19;5010824;28;20194;-77
2023/06/30 05:01:10;;;;;;;48.17;37.93;;;;;;;19.02;100.00;99638.16;4999886;28;20238;-76
2023/06/30 05:03:36;;;;;;;39.80;35.17;;;;;;;19.10;100.00;99639.19;5009582;28;20279;-77
2023/06/30 05:06:02;;;;;;;41.67;35.90;;;;;;;19.25;100.00;99637.69;4998027;28;20321;-76
2023/06/30 05:08:27;;;;;;;43.43;37.17;;;;;;;19.27;100.00;99632.31;4993089;28;20187;-76
2023/06/30 05:10:52;;;;;;;43.43;36.60;;;;;;;19.44;100.00;99644.50;4989809;28;20230;-76
2023/06/30 05:13:18;;;;;;;46.47;38.97;;;;;;;19.57;100.00;99630.25;4991559;28;20183;-77
2023/06/30 05:15:43;;;;;;;46.77;41.17;;;;;;;19.59;100.00;99623.91;4992676;28;20176;-78
2023/06/30 05:18:09;;;;;;;46.40;39.10;;;;;;;19.51;100.00;99629.88;4991321;28;20515;-79
2023/06/30 05:20:36;;;;;;;48.83;40.40;;;;;;;19.75;100.00;99633.59;4984314;28;20227;-78
2023/06/30 05:23:01;;;;;;;48.27;41.43;;;;;;;19.89;100.00;99634.84;5003571;28;20282;-79
2023/06/30 05:25:27;;;;;;;46.87;39.53;;;;;;;19.98;100.00;99628.72;4991598;28;20275;-79
2023/06/30 05:27:52;;;;;;;46.37;39.33;;;;;;;20.18;100.00;99630.25;4993928;28;20254;-79
2023/06/30 05:30:18;;;;;;;46.87;39.33;;;;;;;20.30;100.00;99637.66;4984934;28;20576;-81
2023/06/30 05:32:43;;;;;;;47.27;39.40;;;;;;;20.48;100.00;99640.13;4990487;28;20231;-82
2023/06/30 05:35:09;;;;;;;47.47;40.40;;;;;;;20.53;100.00;99637.06;4990861;28;20587;-82
2023/06/30 05:37:36;;;;;;;47.13;40.00;;;;;;;20.59;100.00;99643.41;4992422;28;20168;-82
2023/06/30 05:40:01;;;;;;;46.57;39.07;;;;;;;20.47;100.00;99640.31;4992663;28;20183;-82
2023/06/30 05:42:26;;;;;;;45.13;39.50;;;;;;;20.57;100.00;99642.78;4999192;28;20230;-80
2023/06/30 05:44:51;;;;;;;47.00;40.07;;;;;;;20.52;100.00;99645.84;4993019;28;20647;-80
2023/06/30 05:47:17;;;;;;;40.87;35.07;;;;;;;20.11;100.00;99648.34;4992273;28;20171;-79
2023/06/30 05:49:42;;;;;;;37.03;31.23;;;;;;;20.02;100.00;99644.88;4991776;28;20183;-80
2023/06/30 05:52:07;;;;;;;31.93;26.30;;;;;;;19.95;100.00;99638.63;4983735;28;20296;-77
2023/06/30 05:54:33;;;;;;;24.00;21.37;;;;;;;19.87;100.00;99649.03;4991768;28;20223;-77
2023/06/30 05:56:58;;;;;;;23.67;20.43;;;;;;;19.59;100.00;99634.31;4992548;28;20226;-77
2023/06/30 05:59:23;;;;;;;22.33;19.77;;;;;;;19.70;100.00;99635.03;4992558;28;20184;-77
2023/06/30 06:01:48;;;;;;;18.60;16.70;;;;;;;19.80;100.00;99643.59;4984290;28;20226;-77
2023/06/30 06:04:14;;;;;;;15.70;13.53;;;;;;;19.87;100.00;99649.03;4990413;28;20653;-77
2023/06/30 06:06:39;;;;;;;13.80;12.13;;;;;;;19.86;100.00;99643.00;4990755;28;20191;-79
2023/06/30 06:09:04;;;;;;;10.97;9.87;;;;;;;19.82;100.00;99641.63;4992556;28;20184;-79
2023/06/30 06:11:30;;;;;;;9.40;8.50;;;;;;;19.67;100.00;99649.22;4984213;28;20234;-81
2023/06/30 06:13:55;;;;;;;9.50;8.60;;;;;;;19.81;100.00;99653.06;4996289;28;20234;-79
2023/06/30 06:16:21;;;;;;;9.83;8.40;;;;;;;19.72;100.00;99654.81;4991144;28;20187;-78
2023/06/30 06:18:47;;;;;;;9.70;6.93;;;;;;;19.65;100.00;99651.16;4992132;28;20194;-76
2023/06/30 06:21:12;;;;;;;8.03;6.97;;;;;;;19.82;100.00;99646.84;4991012;28;20596;-76
2023/06/30 06:23:38;;;;;;;9.47;6.73;;;;;;;19.81;100.00;99655.66;4998967;28;20214;-75
2023/06/30 06:26:03;;;;;;;5.33;4.90;;;;;;;19.59;100.00;99649.19;5011332;28;20549;-74
2023/06/30 06:28:28;;;;;;;5.97;4.70;;;;;;;19.64;100.00;99654.75;5006931;28;20234;-76
2023/06/30 06:30:54;;;;;;;5.77;5.17;;;;;;;19.92;100.00;99657.22;4996642;28;20229;-76
2023/06/30 06:33:20;;;;;;;4.87;4.50;;;;;;;19.98;100.00;99654.81;4990923;28;20207;-78
2023/06/30 06:35:45;;;;;;;6.20;4.50;;;;;;;20.21;100.00;99656.84;4993331;28;20922;-73
2023/06/30 06:38:10;;;;;;;5.90;4.10;;;;;;;20.42;100.00;99659.06;4996158;28;20195;-72
2023/06/30 06:40:35;;;;;;;3.63;3.33;;;;;;;20.54;100.00;99664.81;4992519;28;20263;-71
2023/06/30 06:43:01;;;;;;;4.67;3.53;;;;;;;20.43;100.00;99665.13;5016889;28;20207;-74
2023/06/30 06:45:27;;;;;;;3.90;3.60;;;;;;;20.56;100.00;99665.44;4997794;28;20639;-79
2023/06/30 06:48:24;;;;;;;3.80;3.50;;;;;;;20.44;100.00;99669.34;4997513;28;20175;-80
2023/06/30 06:50:51;;;;;;;4.13;3.83;;;;;;;20.69;100.00;99675.47;4998331;28;20222;-76
2023/06/30 06:53:19;;;;;;;4.00;3.67;;;;;;;20.81;100.00;99668.16;4993350;28;20187;-74
2023/06/30 06:55:49;;;;;;;4.80;3.97;;;;;;;20.79;100.00;99675.34;5014014;28;20178;-74
2023/06/30 06:58:14;;;;;;;4.70;4.40;;;;;;;20.65;100.00;99684.59;5014365;28;20204;-79
2023/06/30 07:00:39;;;;;;;5.43;4.93;;;;;;;20.67;100.00;99682.63;4987018;28;20227;-74
2023/06/30 07:03:05;;;;;;;5.30;4.80;;;;;;;20.80;100.00;99687.41;5008445;28;20222;-75
2023/06/30 07:05:33;;;;;;;5.37;4.90;;;;;;;20.96;100.00;99678.78;5004559;28;20234;-74
2023/06/30 07:07:58;;;;;;;4.60;4.20;;;;;;;21.18;100.00;99682.56;4999715;28;20190;-74
2023/06/30 07:10:24;;;;;;;5.53;4.53;;;;;;;20.82;100.00;99687.28;4998044;28;20234;-72
2023/06/30 07:12:49;;;;;;;4.97;4.53;;;;;;;20.67;100.00;99687.88;5014554;28;20191;-75
2023/06/30 07:15:14;;;;;;;4.37;3.97;;;;;;;20.57;100.00;99692.41;4995590;28;20186;-73
2023/06/30 07:17:40;;;;;;;4.27;3.87;;;;;;;20.51;100.00;99701.69;4989204;28;20222;-74
2023/06/30 07:20:05;;;;;;;4.50;4.10;;;;;;;19.95;100.00;99702.09;4986095;28;20191;-71
2023/06/30 07:22:32;;;;;;;4.07;3.50;;;;;;;19.86;100.00;99703.03;5011639;28;20211;-72
2023/06/30 07:24:58;;;;;;;3.80;3.50;;;;;;;19.47;100.00;99696.38;5001108;28;20171;-71
2023/06/30 07:27:23;;;;;;;5.33;3.53;;;;;;;19.52;100.00;99698.50;4999179;28;20229;-71
2023/06/30 07:29:50;;;;;;;3.80;3.37;;;;;;;19.26;100.00;99699.28;4994699;28;20202;-71
2023/06/30 07:32:18;;;;;;;3.03;2.73;;;;;;;19.14;100.00;99703.13;4963782;28;20683;-74
2023/06/30 07:34:43;;;;;;;3.00;2.80;;;;;;;18.99;100.00;99702.78;4995138;28;20612;-74
2023/06/30 07:37:09;;;;;;;2.47;2.37;;;;;;;18.94;100.00;99723.25;4993060;28;20270;-72
2023/06/30 07:39:34;;;;;;;3.97;2.47;;;;;;;18.71;100.00;99721.03;4993722;28;20247;-75
2023/06/30 07:41:59;;;;;;;2.83;2.63;;;;;;;18.76;100.00;99715.41;4991411;28;20756;-77
2023/06/30 07:44:25;;;;;;;2.60;2.40;;;;;;;18.77;100.00;99725.66;4999192;28;20647;-78
2023/06/30 07:46:50;;;;;;;1.90;1.80;;;;;;;18.83;100.00;99721.66;4998415;28;20257;-76
2023/06/30 07:49:16;;;;;;;4.10;1.97;;;;;;;18.90;100.00;99729.72;5003525;28;20181;-80
2023/06/30 07:51:41;;;;;;;2.20;2.00;;;;;;;19.13;100.00;99719.72;4998470;28;20680;-79
2023/06/30 07:54:07;;;;;;;1.53;1.43;;;;;;;19.11;100.00;99724.25;5000305;28;20211;-82
2023/06/30 07:56:33;;;;;;;2.47;1.50;;;;;;;19.09;100.00;99723.56;4995104;28;20179;-70
2023/06/30 07:58:58;;;;;;;1.70;1.60;;;;;;;19.22;100.00;99724.03;4997168;28;20601;-71
2023/06/30 08:01:24;;;;;;;1.67;1.57;;;;;;;19.16;100.00;99727.22;4994397;28;20248;-73
2023/06/30 08:03:49;;;;;;;1.83;1.73;;;;;;;19.23;100.00;99724.88;4997494;28;20184;-76
2023/06/30 08:06:14;;;;;;;1.80;1.70;;;;;;;18.99;100.00;99718.41;4992281;28;20230;-76
2023/06/30 08:08:40;;;;;;;1.80;1.50;;;;;;;18.74;100.00;99717.31;4993634;28;20186;-77
2023/06/30 08:11:05;;;;;;;1.80;1.70;;;;;;;18.81;100.00;99719.19;4992354;28;20242;-73
2023/06/30 08:13:31;;;;;;;2.67;1.63;;;;;;;19.03;100.00;99717.97;5000998;28;20186;-74
2023/06/30 08:15:56;;;;;;;1.70;1.33;;;;;;;19.23;100.00;99723.06;5012414;28;20188;-76
2023/06/30 08:18:21;;;;;;;2.67;1.57;;;;;;;19.20;100.00;99728.56;5004287;28;20195;-76
2023/06/30 08:20:46;;;;;;;2.13;1.50;;;;;;;19.21;100.00;99735.41;4990091;28;20227;-72
2023/06/30 08:23:14;;;;;;;1.67;1.40;;;;;;;19.21;100.00;99740.63;4993454;28;20211;-73
2023/06/30 08:25:40;;;;;;;1.13;1.13;;;;;;;19.21;100.00;99724.19;4996297;28;20182;-77
2023/06/30 08:28:05;;;;;;;1.27;1.17;;;;;;;18.96;100.00;99729.97;4995383;28;20615;-74
2023/06/30 08:30:30;;;;;;;1.30;1.20;;;;;;;18.80;100.00;99732.38;4988944;28;20245;-75
2023/06/30 08:32:56;;;;;;;0.90;0.90;;;;;;;18.88;100.00;99737.69;5006610;28;20262;-76
2023/06/30 08:35:22;;;;;;;1.70;1.23;;;;;;;18.96;100.00;99732.56;4997306;28;20181;-75
2023/06/30 08:37:47;;;;;;;1.20;1.10;;;;;;;19.14;100.00;99731.78;4996928;28;20175;-75
2023/06/30 08:40:13;;;;;;;3.40;0.97;;;;;;;19.11;100.00;99729.47;4990719;28;20198;-74
2023/06/30 08:42:44;;;;;;;1.27;1.20;;;;;;;19.11;100.00;99735.47;4993270;28;20227;-75
2023/06/30 08:45:12;;;;;;;1.20;1.13;;;;;;;19.17;100.00;99736.69;4983085;28;20261;-76
2023/06/30 08:47:38;;;;;;;1.27;1.17;;;;;;;19.20;100.00;99738.97;4993487;28;20176;-76
2023/06/30 08:50:05;;;;;;;0.90;0.90;;;;;;;19.21;100.00;99740.63;4986455;28;20278;-74
2023/06/30 08:52:31;;;;;;;1.80;1.00;;;;;;;19.34;100.00;99741.09;5008782;28;20283;-76
2023/06/30 08:54:56;;;;;;;3.87;1.13;;;;;;;19.55;100.00;99739.13;4993429;28;20598;-74
2023/06/30 08:57:23;;;;;;;1.07;0.97;;;;;;;19.56;100.00;99740.78;4993375;28;20187;-73
2023/06/30 08:59:48;;;;;;;0.83;0.83;;;;;;;19.73;100.00;99734.69;4991784;28;20234;-72
2023/06/30 09:02:13;;;;;;;1.30;1.07;;;;;;;19.88;100.00;99735.00;4999511;28;20238;-75
2023/06/30 09:04:43;;;;;;;1.60;1.30;;;;;;;20.11;100.00;99737.09;4993002;28;20540;-76
2023/06/30 09:07:12;;;;;;;1.27;1.17;;;;;;;20.21;100.00;99743.03;4993962;28;20554;-76
2023/06/30 09:09:43;;;;;;;2.10;1.20;;;;;;;20.14;100.00;99748.06;4992818;28;20180;-77
2023/06/30 09:12:10;;;;;;;1.27;1.17;;;;;;;20.09;100.00;99746.88;4984440;28;20645;-78
2023/06/30 09:14:40;;;;;;;3.03;1.20;;;;;;;20.12;100.00;99736.13;4992760;28;20241;-81
2023/06/30 09:17:05;;;;;;;2.13;1.20;;;;;;;20.28;100.00;99743.22;4993788;28;20182;-74
2023/06/30 09:19:31;;;;;;;2.80;1.30;;;;;;;20.34;100.00;99747.00;4981878;28;20183;-77
2023/06/30 09:21:59;;;;;;;0.90;0.90;;;;;;;20.28;100.00;99738.00;4997892;28;20242;-75
2023/06/30 09:24:25;;;;;;;1.37;1.27;;;;;;;20.28;100.00;99745.81;4995923;28;20654;-74
2023/06/30 09:26:52;;;;;;;1.53;1.20;;;;;;;20.23;100.00;99741.09;5008648;28;20678;-74
2023/06/30 09:29:22;;;;;;;5.17;1.17;;;;;;;20.56;100.00;99749.06;5005505;28;20225;-74
2023/06/30 09:31:51;;;;;;;2.10;1.27;;;;;;;20.47;100.00;99748.22;5007330;28;20240;-74
2023/06/30 09:34:19;;;;;;;0.90;0.90;;;;;;;20.67;100.00;99739.31;5007477;28;20182;-75
2023/06/30 09:36:49;;;;;;;1.23;1.13;;;;;;;20.88;100.00;99742.34;5007553;28;20661;-55
2023/06/30 09:39:15;;;;;;;1.20;1.10;;;;;;;20.74;100.00;99746.41;5006942;28;20178;-57
2023/06/30 09:41:47;;;;;;;2.13;1.13;;;;;;;20.64;100.00;99756.13;4998966;28;20339;-57
2023/06/30 09:44:14;;;;;;;2.40;0.97;;;;;;;20.32;100.00;99747.19;4984249;28;20187;-58
2023/06/30 09:46:51;;;;;;;1.23;1.10;;;;;;;20.31;100.00;99748.16;4992385;28;20187;-57
2023/06/30 09:49:28;;;;;;;1.37;1.10;;;;;;;20.26;100.00;99746.00;4984015;28;20724;-57
2023/06/30 09:51:56;;;;;;;0.93;0.90;;;;;;;20.01;100.00;99745.03;4994982;28;20234;-56
2023/06/30 09:54:22;;;;;;;1.50;1.20;;;;;;;19.93;100.00;99750.19;4993981;28;20290;-56
2023/06/30 09:56:56;;;;;;;2.57;1.20;;;;;;;19.87;100.00;99746.44;4993501;28;20190;-55
2023/06/30 09:59:22;;;;;;;1.70;1.03;;;;;;;19.92;100.00;99751.16;5001344;28;20229;-68
2023/06/30 10:01:52;;;;;;;1.47;1.10;;;;;;;20.09;100.00;99754.72;4985715;28;20230;-67
2023/06/30 10:04:17;;;;;;;2.57;1.10;;;;;;;20.29;100.00;99765.75;4990966;28;20459;-68
2023/06/30 10:06:42;;;;;;;1.00;1.00;;;;;;;19.63;100.00;99749.63;4990891;28;20242;-67
2023/06/30 10:09:08;;;;;;;2.10;1.00;;;;;;;19.92;100.00;99754.63;4991117;28;20631;-68
2023/06/30 10:11:35;;;;;;;1.20;1.10;;;;;;;20.11;100.00;99760.59;4992561;28;20709;-68
2023/06/30 10:14:01;;;;;;;1.10;1.10;;;;;;;20.40;100.00;99767.28;4989933;28;20190;-68
2023/06/30 10:16:28;;;;;;;1.60;1.33;;;;;;;20.30;100.00;99765.63;4991486;28;20657;-68
2023/06/30 10:18:55;;;;;;;1.33;1.00;;;;;;;20.09;100.00;99765.16;4991961;28;20187;-67
2023/06/30 10:21:21;;;;;;;1.60;1.40;;;;;;;20.06;100.00;99768.91;4991635;28;20223;-67
2023/06/30 10:23:49;;;;;;;1.50;1.23;;;;;;;20.12;100.00;99772.69;4997179;28;20194;-68
2023/06/30 10:26:17;;;;;;;3.90;1.70;;;;;;;19.72;100.00;99776.59;4991088;28;20203;-67
2023/06/30 10:28:42;;;;;;;5.37;2.10;;;;;;;19.51;100.00;99780.34;4992252;28;20342;-67
2023/06/30 10:31:09;;;;;;;4.60;1.93;;;;;;;19.47;100.00;99787.66;4989880;28;20594;-67
2023/06/30 10:33:34;;;;;;;5.30;2.20;;;;;;;19.79;100.00;99780.25;5010757;28;20297;-68
2023/06/30 10:36:00;;;;;;;2.37;1.80;;;;;;;19.70;100.00;99788.97;5010442;28;20655;-67
2023/06/30 10:38:26;;;;;;;2.53;1.60;;;;;;;19.94;100.00;99788.38;5008461;28;20194;-67
2023/06/30 10:41:12;;;;;;;1.60;1.50;;;;;;;19.94;100.00;99788.38;4982900;28;20281;-68
2023/06/30 10:44:09;;;;;;;5.33;2.00;;;;;;;19.65;100.00;99787.66;4980451;28;20188;-68
2023/06/30 10:46:43;;;;;;;2.73;1.80;;;;;;;19.65;100.00;99790.25;5002804;28;20635;-68
2023/06/30 10:49:17;;;;;;;2.30;1.40;;;;;;;19.70;100.00;99784.59;5003945;28;20533;-68
2023/06/30 10:51:45;;;;;;;1.50;1.40;;;;;;;19.80;100.00;99777.50;4983375;28;20751;-68
2023/06/30 10:54:19;;;;;;;1.60;1.50;;;;;;;19.95;100.00;99784.81;5001909;28;20268;-68
2023/06/30 10:56:44;;;;;;;1.70;1.60;;;;;;;20.22;100.00;99783.84;5010503;28;20700;-68
2023/06/30 10:59:16;;;;;;;2.37;1.67;;;;;;;20.58;100.00;99781.09;5001433;28;20187;-68
2023/06/30 11:02:13;;;;;;;4.40;1.47;;;;;;;21.01;100.00;99781.13;4970381;28;20234;-67
2023/06/30 11:04:41;;;;;;;1.43;1.33;;;;;;;21.81;100.00;99777.13;4991845;28;20176;-67
2023/06/30 11:07:07;;;;;;;1.37;1.20;;;;;;;22.04;99.03;99772.03;4991684;28;20195;-67
2023/06/30 11:09:48;;;;;;;1.57;1.23;;;;;;;22.98;89.78;99773.19;5005355;28;20249;-67
2023/06/30 11:12:55;;;;;;;1.70;1.20;;;;;;;22.98;88.15;99773.19;5014349;28;20272;-68
2023/06/30 11:15:28;;;;;;;2.60;1.40;;;;;;;23.41;88.71;99770.16;4989720;28;20219;-62
2023/06/30 11:17:56;;;;;;;3.23;1.07;;;;;;;23.21;85.10;99774.03;5006112;28;20190;-59